createdAt,value
2017-11-22T00:00:46.158Z,0.00
2017-11-22T00:01:46.153Z,0.00
2017-11-22T00:02:46.149Z,0.00
2017-11-22T00:03:46.148Z,0.00
2017-11-22T00:04:46.141Z,0.00
2017-11-22T00:05:46.135Z,0.00
2017-11-22T00:06:46.131Z,0.00
2017-11-22T00:07:46.128Z,0.00
2017-11-22T00:08:46.131Z,0.00
2017-11-22T00:09:46.118Z,0.00
2017-11-22T00:10:46.113Z,0.00
2017-11-22T00:11:46.112Z,0.00
2017-11-22T00:12:46.105Z,0.00
2017-11-22T00:13:46.100Z,0.00
2017-11-22T00:14:46.095Z,0.00
2017-11-22T00:15:46.142Z,0.00
2017-11-22T00:16:46.088Z,0.00
2017-11-22T00:17:46.083Z,0.00
2017-11-22T00:18:46.080Z,0.00
2017-11-22T00:19:46.074Z,0.00
2017-11-22T00:20:46.071Z,0.00
2017-11-22T00:21:46.064Z,0.00
2017-11-22T00:22:46.061Z,0.00
2017-11-22T00:23:46.156Z,0.00
2017-11-22T00:24:46.053Z,0.00
2017-11-22T00:25:46.098Z,0.00
2017-11-22T00:26:46.048Z,0.00
2017-11-22T00:27:46.039Z,0.00
2017-11-22T00:28:46.036Z,0.00
2017-11-22T00:29:46.030Z,0.00
2017-11-22T00:30:46.025Z,0.00
2017-11-22T00:31:46.021Z,0.00
2017-11-22T00:32:46.016Z,0.00
2017-11-22T00:33:46.013Z,0.00
2017-11-22T00:34:46.007Z,0.00
2017-11-22T00:35:46.005Z,0.00
2017-11-22T00:36:46.000Z,0.00
2017-11-22T00:37:45.996Z,0.00
2017-11-22T00:38:45.993Z,0.00
2017-11-22T00:39:45.985Z,0.00
2017-11-22T00:40:45.981Z,0.00
2017-11-22T00:41:45.977Z,0.00
2017-11-22T00:42:45.971Z,0.00
2017-11-22T00:43:45.969Z,0.00
2017-11-22T00:44:45.963Z,0.00
2017-11-22T00:45:45.976Z,0.00
2017-11-22T00:46:45.955Z,0.00
2017-11-22T00:47:45.950Z,0.00
2017-11-22T00:48:45.948Z,0.00
2017-11-22T00:49:45.940Z,0.00
2017-11-22T00:50:45.937Z,0.00
2017-11-22T00:51:45.930Z,0.00
2017-11-22T00:52:45.927Z,0.00
2017-11-22T00:53:45.922Z,0.00
2017-11-22T00:54:45.917Z,0.00
2017-11-22T00:55:45.915Z,0.00
2017-11-22T00:56:45.909Z,0.00
2017-11-22T00:57:45.904Z,0.00
2017-11-22T00:58:45.901Z,0.00
2017-11-22T00:59:45.895Z,0.00
2017-11-22T01:00:45.891Z,0.00
2017-11-22T01:01:45.885Z,0.00
2017-11-22T01:02:45.880Z,0.00
2017-11-22T01:03:45.876Z,0.00
2017-11-22T01:04:45.873Z,0.00
2017-11-22T01:05:45.867Z,0.00
2017-11-22T01:06:45.862Z,0.00
2017-11-22T01:07:45.861Z,0.00
2017-11-22T01:08:45.855Z,0.00
2017-11-22T01:09:45.848Z,0.00
2017-11-22T01:10:45.844Z,0.00
2017-11-22T01:11:45.840Z,0.00
2017-11-22T01:12:45.844Z,0.00
2017-11-22T01:13:45.829Z,0.00
2017-11-22T01:14:45.825Z,0.00
2017-11-22T01:15:45.822Z,0.00
2017-11-22T01:16:45.817Z,0.00
2017-11-22T01:17:45.811Z,0.00
2017-11-22T01:18:45.827Z,0.00
2017-11-22T01:19:45.802Z,0.00
2017-11-22T01:20:45.805Z,0.00
2017-11-22T01:21:45.793Z,0.00
2017-11-22T01:22:45.788Z,0.00
2017-11-22T01:23:45.785Z,0.00
2017-11-22T01:24:45.780Z,0.00
2017-11-22T01:25:45.774Z,0.00
2017-11-22T01:26:45.775Z,0.00
2017-11-22T01:27:45.786Z,0.00
2017-11-22T01:28:45.762Z,0.00
2017-11-22T01:29:45.758Z,0.00
2017-11-22T01:30:45.752Z,0.00
2017-11-22T01:31:45.747Z,0.00
2017-11-22T01:32:45.744Z,0.00
2017-11-22T01:33:45.738Z,0.00
2017-11-22T01:34:45.734Z,0.00
2017-11-22T01:35:45.731Z,0.00
2017-11-22T01:36:45.726Z,0.00
2017-11-22T01:37:45.720Z,0.00
2017-11-22T01:38:45.716Z,0.00
2017-11-22T01:39:45.712Z,0.00
2017-11-22T01:40:45.707Z,0.00
2017-11-22T01:41:45.703Z,0.00
2017-11-22T01:42:45.697Z,0.00
2017-11-22T01:43:45.694Z,0.00
2017-11-22T01:44:45.689Z,0.00
2017-11-22T01:45:45.684Z,0.00
2017-11-22T01:46:45.680Z,0.00
2017-11-22T01:47:45.675Z,0.00
2017-11-22T01:48:45.670Z,0.00
2017-11-22T01:49:45.665Z,0.00
2017-11-22T01:50:45.660Z,0.00
2017-11-22T01:51:45.658Z,0.00
2017-11-22T01:52:45.653Z,0.00
2017-11-22T01:53:45.647Z,0.00
2017-11-22T01:54:45.693Z,0.00
2017-11-22T01:55:45.640Z,0.00
2017-11-22T01:56:45.634Z,0.00
2017-11-22T01:57:45.637Z,0.00
2017-11-22T01:58:45.624Z,0.00
2017-11-22T01:59:45.620Z,0.00
2017-11-22T02:00:45.617Z,0.00
2017-11-22T02:01:45.610Z,0.00
2017-11-22T02:02:45.609Z,0.00
2017-11-22T02:03:45.605Z,0.00
2017-11-22T02:04:45.596Z,0.00
2017-11-22T02:05:45.594Z,0.00
2017-11-22T02:06:45.586Z,0.00
2017-11-22T02:07:45.584Z,0.00
2017-11-22T02:08:45.586Z,0.00
2017-11-22T02:09:45.573Z,0.00
2017-11-22T02:10:45.569Z,0.00
2017-11-22T02:11:45.564Z,0.00
2017-11-22T02:12:45.560Z,0.00
2017-11-22T02:13:45.555Z,0.00
2017-11-22T02:14:45.550Z,0.00
2017-11-22T02:15:45.546Z,0.00
2017-11-22T02:16:45.541Z,0.00
2017-11-22T02:17:45.537Z,0.00
2017-11-22T02:18:45.532Z,0.00
2017-11-22T02:19:45.528Z,0.00
2017-11-22T02:20:45.532Z,0.00
2017-11-22T02:21:45.518Z,0.00
2017-11-22T02:22:45.512Z,0.00
2017-11-22T02:23:45.509Z,0.00
2017-11-22T02:24:45.504Z,0.00
2017-11-22T02:25:45.498Z,0.00
2017-11-22T02:26:45.493Z,0.00
2017-11-22T02:27:45.490Z,0.00
2017-11-22T02:28:45.484Z,0.00
2017-11-22T02:29:45.479Z,0.00
2017-11-22T02:30:45.477Z,0.00
2017-11-22T02:31:45.470Z,0.00
2017-11-22T02:32:45.465Z,0.00
2017-11-22T02:33:45.462Z,0.00
2017-11-22T02:34:45.456Z,0.00
2017-11-22T02:35:45.453Z,0.00
2017-11-22T02:36:45.448Z,0.00
2017-11-22T02:37:45.443Z,0.00
2017-11-22T02:38:45.438Z,0.00
2017-11-22T02:39:45.432Z,0.00
2017-11-22T02:40:45.431Z,0.00
2017-11-22T02:41:45.422Z,0.00
2017-11-22T02:42:45.420Z,0.00
2017-11-22T02:43:45.413Z,0.00
2017-11-22T02:44:45.409Z,0.00
2017-11-22T02:45:45.404Z,0.00
2017-11-22T02:46:45.453Z,0.00
2017-11-22T02:47:45.397Z,0.00
2017-11-22T02:48:45.390Z,0.00
2017-11-22T02:49:45.385Z,0.00
2017-11-22T02:50:45.380Z,0.00
2017-11-22T02:51:45.375Z,0.00
2017-11-22T02:52:45.372Z,0.00
2017-11-22T02:53:45.366Z,0.00
2017-11-22T02:54:45.361Z,0.00
2017-11-22T02:55:45.356Z,0.00
2017-11-22T02:56:45.353Z,0.00
2017-11-22T02:57:45.346Z,0.00
2017-11-22T02:58:45.343Z,0.00
2017-11-22T02:59:45.337Z,0.00
2017-11-22T03:00:45.332Z,0.00
2017-11-22T03:01:45.400Z,0.00
2017-11-22T03:02:45.322Z,0.00
2017-11-22T03:03:45.318Z,0.00
2017-11-22T03:04:45.313Z,0.00
2017-11-22T03:05:45.308Z,0.00
2017-11-22T03:06:45.303Z,0.00
2017-11-22T03:07:45.298Z,0.00
2017-11-22T03:08:45.293Z,0.00
2017-11-22T03:09:45.290Z,0.00
2017-11-22T03:10:45.284Z,0.00
2017-11-22T03:11:45.280Z,0.00
2017-11-22T03:12:45.275Z,0.00
2017-11-22T03:13:45.268Z,0.00
2017-11-22T03:14:45.265Z,0.00
2017-11-22T03:15:45.261Z,0.00
2017-11-22T03:16:45.256Z,0.00
2017-11-22T03:17:45.250Z,0.00
2017-11-22T03:18:45.245Z,0.00
2017-11-22T03:19:45.241Z,0.00
2017-11-22T03:20:45.236Z,0.00
2017-11-22T03:21:45.231Z,0.00
2017-11-22T03:22:45.230Z,0.00
2017-11-22T03:23:45.222Z,0.00
2017-11-22T03:24:45.218Z,0.00
2017-11-22T03:25:45.223Z,0.00
2017-11-22T03:26:45.206Z,0.00
2017-11-22T03:27:45.206Z,0.00
2017-11-22T03:28:45.198Z,0.00
2017-11-22T03:29:45.200Z,0.00
2017-11-22T03:30:45.191Z,0.00
2017-11-22T03:31:45.184Z,0.00
2017-11-22T03:32:45.180Z,0.00
2017-11-22T03:33:45.175Z,0.00
2017-11-22T03:34:45.170Z,0.00
2017-11-22T03:35:45.166Z,0.00
2017-11-22T03:36:45.159Z,0.00
2017-11-22T03:37:45.155Z,0.00
2017-11-22T03:38:45.150Z,0.00
2017-11-22T03:39:45.144Z,0.00
2017-11-22T03:40:45.157Z,0.00
2017-11-22T03:41:45.135Z,0.00
2017-11-22T03:42:45.133Z,0.00
2017-11-22T03:43:45.127Z,0.00
2017-11-22T03:44:45.121Z,0.00
2017-11-22T03:45:45.117Z,0.00
2017-11-22T03:46:45.114Z,0.00
2017-11-22T03:47:45.108Z,0.00
2017-11-22T03:48:45.102Z,0.00
2017-11-22T03:49:45.098Z,0.00
2017-11-22T03:50:45.092Z,0.00
2017-11-22T03:51:45.088Z,0.00
2017-11-22T03:52:45.085Z,0.00
2017-11-22T03:53:45.080Z,0.00
2017-11-22T03:54:45.073Z,0.00
2017-11-22T03:55:45.069Z,0.00
2017-11-22T03:56:45.064Z,0.00
2017-11-22T03:57:45.059Z,0.00
2017-11-22T03:58:45.058Z,0.00
2017-11-22T03:59:45.049Z,0.00
2017-11-22T04:00:45.046Z,0.00
2017-11-22T04:01:45.037Z,0.00
2017-11-22T04:02:45.034Z,0.00
2017-11-22T04:03:45.080Z,0.00
2017-11-22T04:04:45.025Z,0.00
2017-11-22T04:05:45.018Z,0.00
2017-11-22T04:06:45.015Z,0.00
2017-11-22T04:07:45.011Z,0.00
2017-11-22T04:08:45.005Z,0.00
2017-11-22T04:09:44.998Z,0.00
2017-11-22T04:10:44.996Z,0.00
2017-11-22T04:11:44.991Z,0.00
2017-11-22T04:12:44.985Z,0.00
2017-11-22T04:13:44.979Z,0.00
2017-11-22T04:14:44.976Z,0.00
2017-11-22T04:15:44.970Z,0.00
2017-11-22T04:16:45.015Z,0.00
2017-11-22T04:17:44.959Z,0.00
2017-11-22T04:18:44.954Z,0.00
2017-11-22T04:19:44.953Z,0.00
2017-11-22T04:20:44.946Z,0.00
2017-11-22T04:21:44.941Z,0.00
2017-11-22T04:22:44.939Z,0.00
2017-11-22T04:23:44.932Z,0.00
2017-11-22T04:24:44.927Z,0.00
2017-11-22T04:25:44.921Z,0.00
2017-11-22T04:26:44.915Z,0.00
2017-11-22T04:27:44.911Z,0.00
2017-11-22T04:28:44.912Z,0.00
2017-11-22T04:29:44.900Z,0.00
2017-11-22T04:30:44.894Z,0.00
2017-11-22T04:31:44.890Z,0.00
2017-11-22T04:32:44.886Z,0.00
2017-11-22T04:33:44.892Z,0.00
2017-11-22T04:34:44.876Z,0.00
2017-11-22T04:35:44.872Z,0.00
2017-11-22T04:36:44.865Z,0.00
2017-11-22T04:37:44.860Z,0.00
2017-11-22T04:38:44.855Z,0.00
2017-11-22T04:39:44.852Z,0.00
2017-11-22T04:40:44.845Z,0.00
2017-11-22T04:41:44.840Z,0.00
2017-11-22T04:42:44.835Z,0.00
2017-11-22T04:43:44.830Z,0.00
2017-11-22T04:44:44.826Z,0.00
2017-11-22T04:45:44.820Z,0.00
2017-11-22T04:46:44.816Z,0.00
2017-11-22T04:47:44.861Z,0.00
2017-11-22T04:48:44.807Z,0.00
2017-11-22T04:49:44.800Z,0.00
2017-11-22T04:50:44.796Z,0.00
2017-11-22T04:51:44.792Z,0.00
2017-11-22T04:52:44.788Z,0.00
2017-11-22T04:53:44.783Z,0.00
2017-11-22T04:54:44.776Z,0.00
2017-11-22T04:55:44.772Z,0.00
2017-11-22T04:56:44.767Z,0.00
2017-11-22T04:57:44.761Z,0.00
2017-11-22T04:58:44.757Z,0.00
2017-11-22T04:59:44.752Z,0.00
2017-11-22T05:00:44.748Z,0.00
2017-11-22T05:01:44.746Z,0.00
2017-11-22T05:02:44.744Z,0.00
2017-11-22T05:03:44.732Z,0.00
2017-11-22T05:04:44.728Z,0.00
2017-11-22T05:05:44.722Z,0.00
2017-11-22T05:06:44.718Z,0.00
2017-11-22T05:07:44.714Z,0.00
2017-11-22T05:08:44.709Z,0.00
2017-11-22T05:09:44.703Z,0.00
2017-11-22T05:10:44.704Z,0.00
2017-11-22T05:11:44.694Z,0.00
2017-11-22T05:12:44.690Z,0.00
2017-11-22T05:13:44.684Z,0.00
2017-11-22T05:14:44.678Z,0.00
2017-11-22T05:15:44.675Z,0.00
2017-11-22T05:16:44.671Z,0.00
2017-11-22T05:17:44.664Z,0.00
2017-11-22T05:18:44.675Z,0.00
2017-11-22T05:19:44.654Z,0.00
2017-11-22T05:20:44.650Z,0.00
2017-11-22T05:21:44.645Z,0.00
2017-11-22T05:22:44.691Z,0.00
2017-11-22T05:23:44.636Z,0.00
2017-11-22T05:24:44.630Z,0.00
2017-11-22T05:25:44.623Z,0.00
2017-11-22T05:26:44.620Z,0.00
2017-11-22T05:27:44.616Z,0.00
2017-11-22T05:28:44.610Z,0.00
2017-11-22T05:29:44.607Z,0.00
2017-11-22T05:30:44.599Z,0.00
2017-11-22T05:31:44.596Z,0.00
2017-11-22T05:32:44.590Z,0.00
2017-11-22T05:33:44.588Z,0.00
2017-11-22T05:34:44.580Z,0.00
2017-11-22T05:35:44.576Z,0.00
2017-11-22T05:36:44.570Z,0.00
2017-11-22T05:37:44.565Z,0.00
2017-11-22T05:38:44.564Z,0.00
2017-11-22T05:39:44.554Z,0.00
2017-11-22T05:40:44.550Z,0.00
2017-11-22T05:41:44.544Z,0.00
2017-11-22T05:42:44.589Z,0.00
2017-11-22T05:43:44.535Z,0.00
2017-11-22T05:44:44.530Z,0.00
2017-11-22T05:45:44.524Z,0.00
2017-11-22T05:46:44.519Z,0.00
2017-11-22T05:47:44.514Z,0.00
2017-11-22T05:48:44.509Z,0.00
2017-11-22T05:49:44.554Z,0.00
2017-11-22T05:50:44.499Z,0.00
2017-11-22T05:51:44.493Z,0.00
2017-11-22T05:52:44.489Z,0.00
2017-11-22T05:53:44.482Z,0.00
2017-11-22T05:54:44.481Z,0.00
2017-11-22T05:55:44.472Z,0.00
2017-11-22T05:56:44.469Z,0.00
2017-11-22T05:57:44.461Z,0.00
2017-11-22T05:58:44.457Z,0.00
2017-11-22T05:59:44.453Z,0.00
2017-11-22T06:00:44.447Z,0.00
2017-11-22T06:01:44.450Z,0.00
2017-11-22T06:02:44.443Z,0.00
2017-11-22T06:03:44.434Z,0.00
2017-11-22T06:04:44.427Z,0.00
2017-11-22T06:05:44.422Z,0.00
2017-11-22T06:06:44.417Z,0.00
2017-11-22T06:07:44.411Z,0.00
2017-11-22T06:08:44.406Z,0.00
2017-11-22T06:09:44.401Z,0.00
2017-11-22T06:10:44.396Z,0.00
2017-11-22T06:11:44.391Z,0.00
2017-11-22T06:12:44.396Z,0.00
2017-11-22T06:13:44.382Z,0.00
2017-11-22T06:14:44.376Z,0.00
2017-11-22T06:15:44.372Z,0.00
2017-11-22T06:16:44.367Z,0.00
2017-11-22T06:17:44.361Z,0.00
2017-11-22T06:18:44.356Z,0.00
2017-11-22T06:19:44.352Z,0.00
2017-11-22T06:20:44.347Z,0.00
2017-11-22T06:21:44.344Z,0.00
2017-11-22T06:22:44.335Z,0.00
2017-11-22T06:23:44.340Z,0.00
2017-11-22T06:24:44.325Z,0.00
2017-11-22T06:25:44.320Z,5.63
2017-11-22T06:26:44.317Z,5.63
2017-11-22T06:27:44.312Z,5.63
2017-11-22T06:28:44.309Z,5.63
2017-11-22T06:29:44.300Z,5.63
2017-11-22T06:30:44.296Z,5.63
2017-11-22T06:31:44.292Z,5.63
2017-11-22T06:32:44.287Z,5.63
2017-11-22T06:33:44.282Z,11.25
2017-11-22T06:34:44.275Z,11.25
2017-11-22T06:35:44.272Z,11.25
2017-11-22T06:36:44.267Z,11.25
2017-11-22T06:37:44.261Z,11.25
2017-11-22T06:38:44.257Z,16.88
2017-11-22T06:39:44.253Z,16.88
2017-11-22T06:40:44.246Z,16.88
2017-11-22T06:41:44.241Z,16.88
2017-11-22T06:42:44.237Z,22.50
2017-11-22T06:43:44.237Z,22.50
2017-11-22T06:44:44.227Z,22.50
2017-11-22T06:45:44.222Z,28.13
2017-11-22T06:46:44.217Z,28.13
2017-11-22T06:47:44.513Z,28.13
2017-11-22T06:48:44.207Z,33.75
2017-11-22T06:49:44.203Z,33.75
2017-11-22T06:50:44.201Z,39.38
2017-11-22T06:51:44.192Z,39.38
2017-11-22T06:52:44.189Z,39.38
2017-11-22T06:53:44.183Z,45.00
2017-11-22T06:54:44.177Z,45.00
2017-11-22T06:55:44.174Z,50.63
2017-11-22T06:56:44.170Z,50.63
2017-11-22T06:57:44.163Z,50.63
2017-11-22T06:58:44.208Z,56.25
2017-11-22T06:59:44.154Z,56.25
2017-11-22T07:00:44.200Z,56.25
2017-11-22T07:01:44.145Z,67.50
2017-11-22T07:02:44.140Z,78.75
2017-11-22T07:03:44.135Z,73.13
2017-11-22T07:04:44.130Z,73.13
2017-11-22T07:05:44.125Z,78.75
2017-11-22T07:06:44.121Z,78.75
2017-11-22T07:07:44.116Z,84.38
2017-11-22T07:08:44.112Z,95.63
2017-11-22T07:09:44.109Z,90.00
2017-11-22T07:10:44.103Z,106.88
2017-11-22T07:11:44.099Z,286.88
2017-11-22T07:12:44.094Z,489.38
2017-11-22T07:13:44.094Z,691.88
2017-11-22T07:14:44.085Z,781.88
2017-11-22T07:15:44.081Z,781.88
2017-11-22T07:16:44.079Z,866.25
2017-11-22T07:17:44.076Z,742.50
2017-11-22T07:18:44.074Z,596.25
2017-11-22T07:19:44.070Z,630.00
2017-11-22T07:20:44.069Z,483.75
2017-11-22T07:21:44.066Z,506.25
2017-11-22T07:22:44.065Z,483.75
2017-11-22T07:23:44.065Z,624.38
2017-11-22T07:24:44.065Z,545.63
2017-11-22T07:25:44.062Z,315.00
2017-11-22T07:26:44.062Z,337.50
2017-11-22T07:27:44.061Z,270.00
2017-11-22T07:28:44.062Z,466.88
2017-11-22T07:29:44.060Z,562.50
2017-11-22T07:30:44.067Z,208.13
2017-11-22T07:31:44.062Z,163.13
2017-11-22T07:32:44.057Z,168.75
2017-11-22T07:33:44.062Z,168.75
2017-11-22T07:34:44.058Z,213.75
2017-11-22T07:35:44.055Z,241.88
2017-11-22T07:36:44.055Z,354.38
2017-11-22T07:37:44.055Z,399.38
2017-11-22T07:38:44.053Z,410.63
2017-11-22T07:39:44.051Z,472.50
2017-11-22T07:40:44.051Z,495.00
2017-11-22T07:41:44.051Z,624.38
2017-11-22T07:42:44.050Z,826.88
2017-11-22T07:43:44.049Z,900.00
2017-11-22T07:44:44.049Z,1119.38
2017-11-22T07:45:44.048Z,1130.63
2017-11-22T07:46:44.048Z,928.13
2017-11-22T07:47:44.051Z,714.38
2017-11-22T07:48:44.051Z,708.75
2017-11-22T07:49:44.051Z,686.25
2017-11-22T07:50:44.052Z,506.25
2017-11-22T07:51:44.055Z,410.63
2017-11-22T07:52:44.055Z,562.50
2017-11-22T07:53:44.056Z,652.50
2017-11-22T07:54:44.061Z,562.50
2017-11-22T07:55:44.057Z,472.50
2017-11-22T07:56:44.059Z,601.88
2017-11-22T07:57:44.060Z,821.25
2017-11-22T07:58:44.061Z,793.13
2017-11-22T07:59:44.068Z,466.88
2017-11-22T08:00:44.063Z,286.88
2017-11-22T08:01:44.063Z,230.63
2017-11-22T08:02:44.066Z,219.38
2017-11-22T08:03:44.067Z,213.75
2017-11-22T08:04:44.069Z,208.13
2017-11-22T08:05:44.068Z,208.13
2017-11-22T08:06:44.068Z,208.13
2017-11-22T08:07:44.069Z,219.38
2017-11-22T08:08:44.068Z,331.88
2017-11-22T08:09:44.068Z,573.75
2017-11-22T08:10:44.069Z,703.13
2017-11-22T08:11:44.068Z,528.75
2017-11-22T08:12:44.070Z,365.63
2017-11-22T08:13:44.069Z,573.75
2017-11-22T08:14:44.067Z,838.13
2017-11-22T08:15:44.118Z,866.25
2017-11-22T08:16:44.070Z,708.75
2017-11-22T08:17:44.068Z,585.00
2017-11-22T08:18:44.069Z,759.38
2017-11-22T08:19:44.120Z,714.38
2017-11-22T08:20:44.083Z,376.88
2017-11-22T08:21:44.122Z,213.75
2017-11-22T08:22:44.073Z,208.13
2017-11-22T08:23:44.074Z,202.50
2017-11-22T08:24:44.078Z,191.25
2017-11-22T08:25:44.076Z,185.63
2017-11-22T08:26:44.078Z,191.25
2017-11-22T08:27:44.077Z,241.88
2017-11-22T08:28:44.077Z,382.50
2017-11-22T08:29:44.076Z,568.13
2017-11-22T08:30:44.077Z,495.00
2017-11-22T08:31:44.078Z,270.00
2017-11-22T08:32:44.077Z,213.75
2017-11-22T08:33:44.081Z,236.25
2017-11-22T08:34:44.078Z,258.75
2017-11-22T08:35:44.078Z,258.75
2017-11-22T08:36:44.079Z,281.25
2017-11-22T08:37:44.077Z,219.38
2017-11-22T08:38:44.078Z,185.63
2017-11-22T08:39:44.079Z,168.75
2017-11-22T08:40:44.080Z,168.75
2017-11-22T08:41:44.078Z,168.75
2017-11-22T08:42:44.079Z,180.00
2017-11-22T08:43:44.078Z,185.63
2017-11-22T08:44:44.080Z,230.63
2017-11-22T08:45:44.076Z,270.00
2017-11-22T08:46:44.077Z,281.25
2017-11-22T08:47:44.078Z,348.75
2017-11-22T08:48:44.077Z,506.25
2017-11-22T08:49:44.075Z,585.00
2017-11-22T08:50:44.127Z,360.00
2017-11-22T08:51:44.076Z,213.75
2017-11-22T08:52:44.077Z,180.00
2017-11-22T08:53:44.085Z,219.38
2017-11-22T08:54:44.077Z,180.00
2017-11-22T08:55:44.077Z,174.38
2017-11-22T08:56:44.078Z,191.25
2017-11-22T08:57:44.076Z,343.13
2017-11-22T08:58:44.077Z,371.25
2017-11-22T08:59:44.078Z,225.00
2017-11-22T09:00:44.075Z,478.13
2017-11-22T09:01:44.078Z,450.00
2017-11-22T09:02:44.077Z,450.00
2017-11-22T09:03:44.076Z,365.63
2017-11-22T09:04:44.075Z,315.00
2017-11-22T09:05:44.075Z,720.00
2017-11-22T09:06:44.093Z,860.63
2017-11-22T09:07:44.077Z,720.00
2017-11-22T09:08:44.076Z,686.25
2017-11-22T09:09:44.132Z,652.50
2017-11-22T09:10:44.076Z,630.00
2017-11-22T09:11:44.078Z,511.88
2017-11-22T09:12:44.079Z,320.63
2017-11-22T09:13:44.079Z,292.50
2017-11-22T09:14:44.081Z,354.38
2017-11-22T09:15:44.079Z,298.13
2017-11-22T09:16:44.097Z,264.38
2017-11-22T09:17:44.080Z,292.50
2017-11-22T09:18:44.082Z,382.50
2017-11-22T09:19:44.084Z,360.00
2017-11-22T09:20:44.083Z,601.88
2017-11-22T09:21:44.084Z,770.63
2017-11-22T09:22:44.084Z,495.00
2017-11-22T09:23:44.085Z,298.13
2017-11-22T09:24:44.087Z,562.50
2017-11-22T09:25:44.086Z,945.00
2017-11-22T09:26:44.089Z,888.75
2017-11-22T09:27:44.090Z,618.75
2017-11-22T09:28:44.092Z,495.00
2017-11-22T09:29:44.090Z,691.88
2017-11-22T09:30:44.092Z,798.75
2017-11-22T09:31:44.099Z,849.38
2017-11-22T09:32:44.094Z,630.00
2017-11-22T09:33:44.099Z,708.75
2017-11-22T09:34:44.099Z,855.00
2017-11-22T09:35:44.111Z,697.50
2017-11-22T09:36:44.103Z,506.25
2017-11-22T09:37:44.110Z,489.38
2017-11-22T09:38:44.108Z,483.75
2017-11-22T09:39:44.109Z,523.13
2017-11-22T09:40:44.113Z,697.50
2017-11-22T09:41:44.114Z,826.88
2017-11-22T09:42:44.117Z,804.38
2017-11-22T09:43:44.121Z,883.13
2017-11-22T09:44:44.123Z,978.75
2017-11-22T09:45:44.126Z,916.88
2017-11-22T09:46:44.129Z,804.38
2017-11-22T09:47:44.132Z,860.63
2017-11-22T09:48:44.137Z,658.13
2017-11-22T09:49:44.140Z,562.50
2017-11-22T09:50:44.143Z,421.88
2017-11-22T09:51:44.146Z,354.38
2017-11-22T09:52:44.151Z,438.75
2017-11-22T09:53:44.152Z,607.50
2017-11-22T09:54:44.157Z,652.50
2017-11-22T09:55:44.162Z,455.63
2017-11-22T09:56:44.165Z,551.25
2017-11-22T09:57:44.168Z,894.38
2017-11-22T09:58:44.172Z,1006.88
2017-11-22T09:59:44.179Z,1158.75
2017-11-22T10:00:44.181Z,1299.38
2017-11-22T10:01:44.195Z,1265.63
2017-11-22T10:02:44.189Z,1158.75
2017-11-22T10:03:44.194Z,1063.13
2017-11-22T10:04:44.201Z,928.13
2017-11-22T10:05:44.203Z,725.63
2017-11-22T10:06:44.210Z,888.75
2017-11-22T10:07:44.215Z,1091.25
2017-11-22T10:08:44.220Z,995.63
2017-11-22T10:09:44.226Z,753.75
2017-11-22T10:10:44.232Z,714.38
2017-11-22T10:11:44.288Z,832.50
2017-11-22T10:12:44.243Z,939.38
2017-11-22T10:13:44.250Z,973.13
2017-11-22T10:14:44.256Z,1040.63
2017-11-22T10:15:44.262Z,1006.88
2017-11-22T10:16:44.268Z,1006.88
2017-11-22T10:17:44.274Z,1119.38
2017-11-22T10:18:44.281Z,1119.38
2017-11-22T10:19:44.289Z,1260.00
2017-11-22T10:20:44.292Z,1243.13
2017-11-22T10:21:44.300Z,1237.50
2017-11-22T10:22:44.310Z,1243.13
2017-11-22T10:23:44.318Z,1276.88
2017-11-22T10:24:44.322Z,1108.13
2017-11-22T10:25:44.328Z,916.88
2017-11-22T10:26:44.336Z,1040.63
2017-11-22T10:27:44.351Z,1012.50
2017-11-22T10:28:44.352Z,866.25
2017-11-22T10:29:44.357Z,720.00
2017-11-22T10:30:44.366Z,703.13
2017-11-22T10:31:44.375Z,691.88
2017-11-22T10:32:44.382Z,759.38
2017-11-22T10:33:44.390Z,776.25
2017-11-22T10:34:44.397Z,596.25
2017-11-22T10:35:44.405Z,607.50
2017-11-22T10:36:44.412Z,500.63
2017-11-22T10:37:44.418Z,641.25
2017-11-22T10:38:44.425Z,703.13
2017-11-22T10:39:44.432Z,630.00
2017-11-22T10:40:44.440Z,748.13
2017-11-22T10:41:44.446Z,804.38
2017-11-22T10:42:44.455Z,765.00
2017-11-22T10:43:44.461Z,787.50
2017-11-22T10:44:44.471Z,888.75
2017-11-22T10:45:44.475Z,770.63
2017-11-22T10:46:44.481Z,815.63
2017-11-22T10:47:44.502Z,928.13
2017-11-22T10:48:44.497Z,1001.25
2017-11-22T10:49:44.504Z,956.25
2017-11-22T10:50:44.511Z,900.00
2017-11-22T10:51:44.521Z,894.38
2017-11-22T10:52:44.532Z,911.25
2017-11-22T10:53:44.534Z,922.50
2017-11-22T10:54:44.544Z,765.00
2017-11-22T10:55:44.551Z,641.25
2017-11-22T10:56:44.578Z,511.88
2017-11-22T10:57:44.567Z,483.75
2017-11-22T10:58:44.577Z,630.00
2017-11-22T10:59:44.585Z,618.75
2017-11-22T11:00:44.594Z,630.00
2017-11-22T11:01:44.599Z,658.13
2017-11-22T11:02:44.609Z,635.63
2017-11-22T11:03:44.617Z,641.25
2017-11-22T11:04:44.624Z,534.38
2017-11-22T11:05:44.631Z,607.50
2017-11-22T11:06:44.640Z,601.88
2017-11-22T11:07:44.651Z,590.63
2017-11-22T11:08:44.656Z,697.50
2017-11-22T11:09:44.665Z,658.13
2017-11-22T11:10:44.674Z,652.50
2017-11-22T11:11:44.680Z,579.38
2017-11-22T11:12:44.690Z,450.00
2017-11-22T11:13:44.698Z,483.75
2017-11-22T11:14:44.705Z,596.25
2017-11-22T11:15:44.713Z,500.63
2017-11-22T11:16:44.723Z,354.38
2017-11-22T11:17:44.731Z,382.50
2017-11-22T11:18:44.739Z,270.00
2017-11-22T11:19:44.748Z,281.25
2017-11-22T11:20:44.754Z,281.25
2017-11-22T11:21:44.766Z,253.13
2017-11-22T11:22:44.770Z,253.13
2017-11-22T11:23:44.777Z,247.50
2017-11-22T11:24:44.787Z,298.13
2017-11-22T11:25:44.790Z,331.88
2017-11-22T11:26:44.849Z,309.38
2017-11-22T11:27:44.807Z,264.38
2017-11-22T11:28:44.813Z,236.25
2017-11-22T11:29:44.818Z,275.63
2017-11-22T11:30:44.826Z,326.25
2017-11-22T11:31:44.837Z,348.75
2017-11-22T11:32:44.840Z,360.00
2017-11-22T11:33:44.845Z,354.38
2017-11-22T11:34:44.852Z,348.75
2017-11-22T11:35:44.859Z,360.00
2017-11-22T11:36:44.865Z,376.88
2017-11-22T11:37:44.870Z,382.50
2017-11-22T11:38:44.878Z,331.88
2017-11-22T11:39:44.885Z,286.88
2017-11-22T11:40:44.891Z,286.88
2017-11-22T11:41:44.903Z,292.50
2017-11-22T11:42:44.905Z,326.25
2017-11-22T11:43:44.913Z,382.50
2017-11-22T11:44:44.920Z,382.50
2017-11-22T11:45:44.976Z,371.25
2017-11-22T11:46:44.933Z,348.75
2017-11-22T11:47:44.942Z,343.13
2017-11-22T11:48:44.948Z,320.63
2017-11-22T11:49:44.954Z,320.63
2017-11-22T11:50:44.961Z,360.00
2017-11-22T11:51:45.071Z,444.38
2017-11-22T11:52:44.976Z,551.25
2017-11-22T11:53:44.984Z,523.13
2017-11-22T11:54:45.040Z,461.25
2017-11-22T11:55:44.998Z,450.00
2017-11-22T11:56:45.006Z,382.50
2017-11-22T11:57:45.012Z,382.50
2017-11-22T11:58:45.024Z,483.75
2017-11-22T11:59:45.027Z,483.75
2017-11-22T12:00:45.035Z,511.88
2017-11-22T12:01:45.042Z,517.50
2017-11-22T12:02:45.049Z,461.25
2017-11-22T12:03:45.059Z,455.63
2017-11-22T12:04:45.065Z,427.50
2017-11-22T12:05:45.073Z,410.63
2017-11-22T12:06:45.082Z,461.25
2017-11-22T12:07:45.089Z,466.88
2017-11-22T12:08:45.096Z,472.50
2017-11-22T12:09:45.103Z,500.63
2017-11-22T12:10:45.111Z,540.00
2017-11-22T12:11:45.169Z,562.50
2017-11-22T12:12:45.127Z,528.75
2017-11-22T12:13:45.134Z,483.75
2017-11-22T12:14:45.141Z,466.88
2017-11-22T12:15:45.150Z,545.63
2017-11-22T12:16:45.157Z,545.63
2017-11-22T12:17:45.164Z,545.63
2017-11-22T12:18:45.173Z,551.25
2017-11-22T12:19:45.180Z,601.88
2017-11-22T12:20:45.190Z,568.13
2017-11-22T12:21:45.195Z,517.50
2017-11-22T12:22:45.203Z,433.13
2017-11-22T12:23:45.211Z,455.63
2017-11-22T12:24:45.220Z,528.75
2017-11-22T12:25:45.229Z,534.38
2017-11-22T12:26:45.236Z,528.75
2017-11-22T12:27:45.244Z,528.75
2017-11-22T12:28:45.259Z,528.75
2017-11-22T12:29:45.259Z,489.38
2017-11-22T12:30:45.269Z,450.00
2017-11-22T12:31:45.277Z,410.63
2017-11-22T12:32:45.288Z,365.63
2017-11-22T12:33:45.291Z,450.00
2017-11-22T12:34:45.299Z,523.13
2017-11-22T12:35:45.308Z,511.88
2017-11-22T12:36:45.317Z,500.63
2017-11-22T12:37:45.323Z,489.38
2017-11-22T12:38:45.332Z,450.00
2017-11-22T12:39:45.338Z,433.13
2017-11-22T12:40:45.346Z,393.75
2017-11-22T12:41:45.353Z,399.38
2017-11-22T12:42:45.361Z,393.75
2017-11-22T12:43:45.369Z,382.50
2017-11-22T12:44:45.425Z,337.50
2017-11-22T12:45:45.382Z,337.50
2017-11-22T12:46:45.389Z,343.13
2017-11-22T12:47:45.548Z,343.13
2017-11-22T12:48:45.404Z,354.38
2017-11-22T12:49:45.411Z,354.38
2017-11-22T12:50:45.417Z,360.00
2017-11-22T12:51:45.425Z,388.13
2017-11-22T12:52:45.431Z,405.00
2017-11-22T12:53:45.438Z,427.50